sensor_id;sensor_type;location;lat;lon;timestamp;temperature;humidity
29003;DHT22;16102;57.138;-2.118;2022-10-31T00:01:33;11.50;1.00
29003;DHT22;16102;57.138;-2.118;2022-10-31T00:04:01;11.50;1.00
29003;DHT22;16102;57.138;-2.118;2022-10-31T00:06:28;11.40;1.00
29003;DHT22;16102;57.138;-2.118;2022-10-31T00:09:00;11.50;1.00
29003;DHT22;16102;57.138;-2.118;2022-10-31T00:11:27;11.50;1.00
29003;DHT22;16102;57.138;-2.118;2022-10-31T00:13:56;11.50;1.00
29003;DHT22;16102;57.138;-2.118;2022-10-31T00:16:24;11.40;1.00
29003;DHT22;16102;57.138;-2.118;2022-10-31T00:18:52;11.50;1.00
29003;DHT22;16102;57.138;-2.118;2022-10-31T00:21:21;11.40;1.00
29003;DHT22;16102;57.138;-2.118;2022-10-31T00:23:48;11.40;1.00
29003;DHT22;16102;57.138;-2.118;2022-10-31T00:26:15;11.40;1.00
29003;DHT22;16102;57.138;-2.118;2022-10-31T00:28:42;11.40;1.00
29003;DHT22;16102;57.138;-2.118;2022-10-31T00:31:11;11.30;1.00
29003;DHT22;16102;57.138;-2.118;2022-10-31T00:33:39;11.30;1.00
29003;DHT22;16102;57.138;-2.118;2022-10-31T00:36:09;11.20;1.00
29003;DHT22;16102;57.138;-2.118;2022-10-31T00:38:37;11.20;8.70
29003;DHT22;16102;57.138;-2.118;2022-10-31T00:41:04;11.20;27.60
29003;DHT22;16102;57.138;-2.118;2022-10-31T00:43:31;11.30;54.30
29003;DHT22;16102;57.138;-2.118;2022-10-31T00:45:57;11.20;75.40
29003;DHT22;16102;57.138;-2.118;2022-10-31T00:48:24;11.30;82.50
29003;DHT22;16102;57.138;-2.118;2022-10-31T00:50:51;11.20;92.60
29003;DHT22;16102;57.138;-2.118;2022-10-31T00:53:18;11.20;97.40
29003;DHT22;16102;57.138;-2.118;2022-10-31T00:55:45;11.20;99.90
29003;DHT22;16102;57.138;-2.118;2022-10-31T00:58:12;11.20;99.90
29003;DHT22;16102;57.138;-2.118;2022-10-31T01:00:40;11.20;99.90
29003;DHT22;16102;57.138;-2.118;2022-10-31T01:03:07;11.20;99.90
29003;DHT22;16102;57.138;-2.118;2022-10-31T01:05:34;11.20;99.90
29003;DHT22;16102;57.138;-2.118;2022-10-31T01:08:01;11.10;99.90
29003;DHT22;16102;57.138;-2.118;2022-10-31T01:10:28;11.10;99.90
29003;DHT22;16102;57.138;-2.118;2022-10-31T01:12:55;11.10;99.90
29003;DHT22;16102;57.138;-2.118;2022-10-31T01:15:22;11.10;99.90
29003;DHT22;16102;57.138;-2.118;2022-10-31T01:17:50;11.20;99.90
29003;DHT22;16102;57.138;-2.118;2022-10-31T01:20:17;11.10;99.90
29003;DHT22;16102;57.138;-2.118;2022-10-31T01:22:44;11.20;99.90
29003;DHT22;16102;57.138;-2.118;2022-10-31T01:25:11;11.20;99.90
29003;DHT22;16102;57.138;-2.118;2022-10-31T01:27:38;11.20;98.00
29003;DHT22;16102;57.138;-2.118;2022-10-31T01:30:06;11.10;93.90
29003;DHT22;16102;57.138;-2.118;2022-10-31T01:32:33;11.10;99.90
29003;DHT22;16102;57.138;-2.118;2022-10-31T01:35:00;11.10;99.90
29003;DHT22;16102;57.138;-2.118;2022-10-31T01:37:27;11.10;99.90
29003;DHT22;16102;57.138;-2.118;2022-10-31T01:39:54;11.10;99.90
29003;DHT22;16102;57.138;-2.118;2022-10-31T01:42:22;11.10;99.90
29003;DHT22;16102;57.138;-2.118;2022-10-31T01:44:55;11.10;99.90
29003;DHT22;16102;57.138;-2.118;2022-10-31T01:47:49;11.20;99.90
29003;DHT22;16102;57.138;-2.118;2022-10-31T01:50:30;11.20;99.90
29003;DHT22;16102;57.138;-2.118;2022-10-31T01:53:00;11.20;91.60
29003;DHT22;16102;57.138;-2.118;2022-10-31T01:55:30;11.30;45.50
29003;DHT22;16102;57.138;-2.118;2022-10-31T01:58:04;11.30;1.00
29003;DHT22;16102;57.138;-2.118;2022-10-31T02:00:32;11.30;1.00
29003;DHT22;16102;57.138;-2.118;2022-10-31T02:02:59;11.40;1.00
29003;DHT22;16102;57.138;-2.118;2022-10-31T02:05:29;11.40;1.00
29003;DHT22;16102;57.138;-2.118;2022-10-31T02:08:10;11.50;1.00
29003;DHT22;16102;57.138;-2.118;2022-10-31T02:10:42;11.50;1.00
29003;DHT22;16102;57.138;-2.118;2022-10-31T02:13:09;11.50;1.00
29003;DHT22;16102;57.138;-2.118;2022-10-31T02:15:38;11.50;1.00
29003;DHT22;16102;57.138;-2.118;2022-10-31T02:18:07;11.50;1.00
29003;DHT22;16102;57.138;-2.118;2022-10-31T02:21:04;11.60;1.00
29003;DHT22;16102;57.138;-2.118;2022-10-31T02:24:22;11.50;1.00
29003;DHT22;16102;57.138;-2.118;2022-10-31T02:32:24;11.70;99.90
29003;DHT22;16102;57.138;-2.118;2022-10-31T02:35:11;11.60;99.90
29003;DHT22;16102;57.138;-2.118;2022-10-31T02:40:19;11.60;1.00
29003;DHT22;16102;57.138;-2.118;2022-10-31T02:43:21;11.60;1.00
29003;DHT22;16102;57.138;-2.118;2022-10-31T02:45:57;11.60;1.00
29003;DHT22;16102;57.138;-2.118;2022-10-31T02:48:28;11.60;1.00
29003;DHT22;16102;57.138;-2.118;2022-10-31T02:50:58;11.60;1.00
29003;DHT22;16102;57.138;-2.118;2022-10-31T02:53:26;11.60;1.00
29003;DHT22;16102;57.138;-2.118;2022-10-31T02:56:02;11.60;1.00
29003;DHT22;16102;57.138;-2.118;2022-10-31T02:58:35;11.50;1.00
29003;DHT22;16102;57.138;-2.118;2022-10-31T03:10:08;11.50;1.00
29003;DHT22;16102;57.138;-2.118;2022-10-31T03:15:45;11.60;1.00
29003;DHT22;16102;57.138;-2.118;2022-10-31T03:18:39;11.70;1.00
29003;DHT22;16102;57.138;-2.118;2022-10-31T03:21:16;11.70;1.00
29003;DHT22;16102;57.138;-2.118;2022-10-31T03:23:47;11.70;1.00
29003;DHT22;16102;57.138;-2.118;2022-10-31T03:26:16;11.70;1.00
29003;DHT22;16102;57.138;-2.118;2022-10-31T03:31:18;11.70;1.00
29003;DHT22;16102;57.138;-2.118;2022-10-31T03:33:47;11.70;1.00
29003;DHT22;16102;57.138;-2.118;2022-10-31T03:36:16;11.70;1.00
29003;DHT22;16102;57.138;-2.118;2022-10-31T03:38:45;11.60;1.00
29003;DHT22;16102;57.138;-2.118;2022-10-31T03:41:21;11.60;1.00
29003;DHT22;16102;57.138;-2.118;2022-10-31T03:43:57;11.60;1.00
29003;DHT22;16102;57.138;-2.118;2022-10-31T03:46:25;11.60;1.00
29003;DHT22;16102;57.138;-2.118;2022-10-31T03:48:52;11.60;1.00
29003;DHT22;16102;57.138;-2.118;2022-10-31T03:57:14;11.50;1.00
29003;DHT22;16102;57.138;-2.118;2022-10-31T03:59:35;11.50;1.00
29003;DHT22;16102;57.138;-2.118;2022-10-31T04:02:09;11.50;1.00
29003;DHT22;16102;57.138;-2.118;2022-10-31T04:04:38;11.50;1.00
29003;DHT22;16102;57.138;-2.118;2022-10-31T04:07:06;11.50;1.00
29003;DHT22;16102;57.138;-2.118;2022-10-31T04:09:37;11.40;1.00
29003;DHT22;16102;57.138;-2.118;2022-10-31T04:12:06;11.40;1.00
29003;DHT22;16102;57.138;-2.118;2022-10-31T04:14:38;11.40;1.00
29003;DHT22;16102;57.138;-2.118;2022-10-31T04:17:09;11.40;1.00
29003;DHT22;16102;57.138;-2.118;2022-10-31T04:19:37;11.40;1.00
29003;DHT22;16102;57.138;-2.118;2022-10-31T04:22:04;11.40;1.00
29003;DHT22;16102;57.138;-2.118;2022-10-31T04:24:31;11.30;14.10
29003;DHT22;16102;57.138;-2.118;2022-10-31T04:26:58;11.30;22.20
29003;DHT22;16102;57.138;-2.118;2022-10-31T04:29:25;11.30;45.30
29003;DHT22;16102;57.138;-2.118;2022-10-31T04:31:51;11.30;44.20
29003;DHT22;16102;57.138;-2.118;2022-10-31T04:34:18;11.30;64.60
29003;DHT22;16102;57.138;-2.118;2022-10-31T04:36:45;11.20;96.90
29003;DHT22;16102;57.138;-2.118;2022-10-31T04:39:12;11.20;99.90
29003;DHT22;16102;57.138;-2.118;2022-10-31T04:41:39;11.20;99.90
29003;DHT22;16102;57.138;-2.118;2022-10-31T04:44:06;11.20;99.90
29003;DHT22;16102;57.138;-2.118;2022-10-31T04:46:33;11.20;99.90
29003;DHT22;16102;57.138;-2.118;2022-10-31T04:49:00;11.10;99.90
29003;DHT22;16102;57.138;-2.118;2022-10-31T04:51:27;11.10;99.90
29003;DHT22;16102;57.138;-2.118;2022-10-31T04:53:54;11.20;99.90
29003;DHT22;16102;57.138;-2.118;2022-10-31T04:56:21;11.20;99.90
29003;DHT22;16102;57.138;-2.118;2022-10-31T04:58:48;11.20;99.90
29003;DHT22;16102;57.138;-2.118;2022-10-31T05:01:16;11.10;99.90
29003;DHT22;16102;57.138;-2.118;2022-10-31T05:03:43;11.10;99.90
29003;DHT22;16102;57.138;-2.118;2022-10-31T05:06:10;11.10;99.90
29003;DHT22;16102;57.138;-2.118;2022-10-31T05:08:37;11.10;99.90
29003;DHT22;16102;57.138;-2.118;2022-10-31T05:11:04;11.00;99.90
29003;DHT22;16102;57.138;-2.118;2022-10-31T05:13:31;11.00;99.90
29003;DHT22;16102;57.138;-2.118;2022-10-31T05:15:58;10.90;99.90
29003;DHT22;16102;57.138;-2.118;2022-10-31T05:18:25;10.80;99.90
29003;DHT22;16102;57.138;-2.118;2022-10-31T05:20:52;10.80;99.90
29003;DHT22;16102;57.138;-2.118;2022-10-31T05:23:19;10.80;99.90
29003;DHT22;16102;57.138;-2.118;2022-10-31T05:25:46;10.80;99.90
29003;DHT22;16102;57.138;-2.118;2022-10-31T05:28:13;10.90;99.90
29003;DHT22;16102;57.138;-2.118;2022-10-31T05:30:40;10.80;99.90
29003;DHT22;16102;57.138;-2.118;2022-10-31T05:33:07;10.80;99.90
29003;DHT22;16102;57.138;-2.118;2022-10-31T05:35:34;10.80;99.90
29003;DHT22;16102;57.138;-2.118;2022-10-31T05:38:00;10.80;1.00
29003;DHT22;16102;57.138;-2.118;2022-10-31T05:40:28;10.90;1.00
29003;DHT22;16102;57.138;-2.118;2022-10-31T05:42:56;11.00;1.00
29003;DHT22;16102;57.138;-2.118;2022-10-31T05:45:25;11.00;1.00
29003;DHT22;16102;57.138;-2.118;2022-10-31T05:47:57;11.00;1.00
29003;DHT22;16102;57.138;-2.118;2022-10-31T05:50:26;11.00;1.00
29003;DHT22;16102;57.138;-2.118;2022-10-31T05:52:59;11.10;1.00
29003;DHT22;16102;57.138;-2.118;2022-10-31T05:55:26;11.10;1.00
29003;DHT22;16102;57.138;-2.118;2022-10-31T05:57:54;11.10;1.00
29003;DHT22;16102;57.138;-2.118;2022-10-31T06:00:22;11.10;58.40
29003;DHT22;16102;57.138;-2.118;2022-10-31T06:02:49;11.20;99.90
29003;DHT22;16102;57.138;-2.118;2022-10-31T06:05:16;11.20;99.90
29003;DHT22;16102;57.138;-2.118;2022-10-31T06:07:43;11.20;99.90
29003;DHT22;16102;57.138;-2.118;2022-10-31T06:10:10;11.20;99.90
29003;DHT22;16102;57.138;-2.118;2022-10-31T06:12:37;11.30;99.90
29003;DHT22;16102;57.138;-2.118;2022-10-31T06:15:08;11.40;1.00
29003;DHT22;16102;57.138;-2.118;2022-10-31T06:17:36;11.40;1.00
29003;DHT22;16102;57.138;-2.118;2022-10-31T06:20:04;11.40;1.00
29003;DHT22;16102;57.138;-2.118;2022-10-31T06:22:31;11.50;1.00
29003;DHT22;16102;57.138;-2.118;2022-10-31T06:24:58;11.50;1.00
29003;DHT22;16102;57.138;-2.118;2022-10-31T06:27:25;11.50;1.00
29003;DHT22;16102;57.138;-2.118;2022-10-31T06:29:52;11.50;1.00
29003;DHT22;16102;57.138;-2.118;2022-10-31T06:32:19;11.50;1.00
29003;DHT22;16102;57.138;-2.118;2022-10-31T06:34:46;11.50;1.00
29003;DHT22;16102;57.138;-2.118;2022-10-31T06:37:15;11.60;1.00
29003;DHT22;16102;57.138;-2.118;2022-10-31T06:39:42;11.70;99.90
29003;DHT22;16102;57.138;-2.118;2022-10-31T06:42:09;11.80;99.90
29003;DHT22;16102;57.138;-2.118;2022-10-31T06:44:36;11.80;1.00
29003;DHT22;16102;57.138;-2.118;2022-10-31T06:47:03;11.90;1.00
29003;DHT22;16102;57.138;-2.118;2022-10-31T06:49:31;11.90;99.90
29003;DHT22;16102;57.138;-2.118;2022-10-31T06:51:58;11.90;99.90
29003;DHT22;16102;57.138;-2.118;2022-10-31T06:54:25;12.00;99.90
29003;DHT22;16102;57.138;-2.118;2022-10-31T06:56:52;12.00;1.00
29003;DHT22;16102;57.138;-2.118;2022-10-31T06:59:19;12.00;1.00
29003;DHT22;16102;57.138;-2.118;2022-10-31T07:01:46;12.00;1.00
29003;DHT22;16102;57.138;-2.118;2022-10-31T07:04:13;12.10;1.00
29003;DHT22;16102;57.138;-2.118;2022-10-31T07:06:40;12.10;1.00
29003;DHT22;16102;57.138;-2.118;2022-10-31T07:09:07;12.10;1.00
29003;DHT22;16102;57.138;-2.118;2022-10-31T07:11:34;12.20;1.00
29003;DHT22;16102;57.138;-2.118;2022-10-31T07:14:00;12.20;99.90
29003;DHT22;16102;57.138;-2.118;2022-10-31T07:16:27;12.20;99.90
29003;DHT22;16102;57.138;-2.118;2022-10-31T07:18:54;12.20;99.90
29003;DHT22;16102;57.138;-2.118;2022-10-31T07:21:21;12.10;99.90
29003;DHT22;16102;57.138;-2.118;2022-10-31T07:23:48;12.20;99.90
29003;DHT22;16102;57.138;-2.118;2022-10-31T07:26:15;12.10;99.90
29003;DHT22;16102;57.138;-2.118;2022-10-31T07:28:42;12.10;99.90
29003;DHT22;16102;57.138;-2.118;2022-10-31T07:31:09;12.20;99.90
29003;DHT22;16102;57.138;-2.118;2022-10-31T07:33:36;12.20;49.50
29003;DHT22;16102;57.138;-2.118;2022-10-31T07:36:03;12.20;1.00
29003;DHT22;16102;57.138;-2.118;2022-10-31T07:38:30;12.20;1.00
29003;DHT22;16102;57.138;-2.118;2022-10-31T07:40:57;12.30;1.00
29003;DHT22;16102;57.138;-2.118;2022-10-31T07:43:24;12.20;1.00
29003;DHT22;16102;57.138;-2.118;2022-10-31T07:45:52;12.20;1.00
29003;DHT22;16102;57.138;-2.118;2022-10-31T07:48:19;12.20;99.90
29003;DHT22;16102;57.138;-2.118;2022-10-31T07:50:47;12.10;99.90
29003;DHT22;16102;57.138;-2.118;2022-10-31T07:53:14;12.10;99.90
29003;DHT22;16102;57.138;-2.118;2022-10-31T07:55:42;12.10;99.90
29003;DHT22;16102;57.138;-2.118;2022-10-31T07:58:14;12.10;99.90
29003;DHT22;16102;57.138;-2.118;2022-10-31T08:00:43;12.20;1.00
29003;DHT22;16102;57.138;-2.118;2022-10-31T08:03:13;12.20;1.00
29003;DHT22;16102;57.138;-2.118;2022-10-31T08:05:41;12.20;1.00
29003;DHT22;16102;57.138;-2.118;2022-10-31T08:08:08;12.10;1.00
29003;DHT22;16102;57.138;-2.118;2022-10-31T08:10:36;12.20;99.90
29003;DHT22;16102;57.138;-2.118;2022-10-31T08:13:11;12.20;99.90
29003;DHT22;16102;57.138;-2.118;2022-10-31T08:15:39;12.20;99.90
29003;DHT22;16102;57.138;-2.118;2022-10-31T08:18:14;12.20;99.90
29003;DHT22;16102;57.138;-2.118;2022-10-31T08:20:42;12.20;99.90
29003;DHT22;16102;57.138;-2.118;2022-10-31T08:23:10;12.20;99.90
29003;DHT22;16102;57.138;-2.118;2022-10-31T08:25:37;12.30;99.90
29003;DHT22;16102;57.138;-2.118;2022-10-31T08:28:06;12.30;99.90
29003;DHT22;16102;57.138;-2.118;2022-10-31T08:30:35;12.40;66.30
29003;DHT22;16102;57.138;-2.118;2022-10-31T08:33:07;12.30;5.00
29003;DHT22;16102;57.138;-2.118;2022-10-31T08:35:35;12.30;1.00
29003;DHT22;16102;57.138;-2.118;2022-10-31T08:38:02;12.40;1.00
29003;DHT22;16102;57.138;-2.118;2022-10-31T08:40:30;12.40;1.00
29003;DHT22;16102;57.138;-2.118;2022-10-31T08:42:59;12.40;1.00
29003;DHT22;16102;57.138;-2.118;2022-10-31T08:45:27;12.50;1.00
29003;DHT22;16102;57.138;-2.118;2022-10-31T08:48:06;12.50;1.00
29003;DHT22;16102;57.138;-2.118;2022-10-31T08:50:35;12.60;1.00
29003;DHT22;16102;57.138;-2.118;2022-10-31T08:53:20;12.60;1.00
29003;DHT22;16102;57.138;-2.118;2022-10-31T08:55:47;12.60;1.00
29003;DHT22;16102;57.138;-2.118;2022-10-31T08:58:16;12.70;1.00
29003;DHT22;16102;57.138;-2.118;2022-10-31T09:00:44;12.70;1.00
29003;DHT22;16102;57.138;-2.118;2022-10-31T09:03:13;12.80;1.00
29003;DHT22;16102;57.138;-2.118;2022-10-31T09:05:41;12.80;1.00
29003;DHT22;16102;57.138;-2.118;2022-10-31T09:08:08;12.80;1.00
29003;DHT22;16102;57.138;-2.118;2022-10-31T09:10:42;12.90;1.00
29003;DHT22;16102;57.138;-2.118;2022-10-31T09:13:18;12.90;1.00
29003;DHT22;16102;57.138;-2.118;2022-10-31T09:15:46;13.00;1.00
29003;DHT22;16102;57.138;-2.118;2022-10-31T09:18:16;12.90;1.00
29003;DHT22;16102;57.138;-2.118;2022-10-31T09:20:45;12.90;99.90
29003;DHT22;16102;57.138;-2.118;2022-10-31T09:23:14;12.80;99.90
29003;DHT22;16102;57.138;-2.118;2022-10-31T09:25:42;12.80;99.90
29003;DHT22;16102;57.138;-2.118;2022-10-31T09:28:18;12.90;99.90
29003;DHT22;16102;57.138;-2.118;2022-10-31T09:30:47;12.90;99.90
29003;DHT22;16102;57.138;-2.118;2022-10-31T09:33:14;12.90;99.90
29003;DHT22;16102;57.138;-2.118;2022-10-31T09:35:42;12.80;99.90
29003;DHT22;16102;57.138;-2.118;2022-10-31T09:38:11;12.90;99.90
29003;DHT22;16102;57.138;-2.118;2022-10-31T09:43:46;13.20;99.90
29003;DHT22;16102;57.138;-2.118;2022-10-31T09:51:40;13.40;99.90
29003;DHT22;16102;57.138;-2.118;2022-10-31T09:54:29;13.50;52.30
29003;DHT22;16102;57.138;-2.118;2022-10-31T09:56:58;13.50;1.00
29003;DHT22;16102;57.138;-2.118;2022-10-31T09:59:39;13.50;1.00
29003;DHT22;16102;57.138;-2.118;2022-10-31T10:05:03;13.50;1.00
29003;DHT22;16102;57.138;-2.118;2022-10-31T10:10:24;13.50;1.00
29003;DHT22;16102;57.138;-2.118;2022-10-31T10:13:12;13.50;1.00
29003;DHT22;16102;57.138;-2.118;2022-10-31T10:18:23;13.70;1.00
29003;DHT22;16102;57.138;-2.118;2022-10-31T10:24:38;13.80;1.00
29003;DHT22;16102;57.138;-2.118;2022-10-31T10:32:59;13.70;1.00
29003;DHT22;16102;57.138;-2.118;2022-10-31T10:36:03;13.70;1.00
29003;DHT22;16102;57.138;-2.118;2022-10-31T10:41:22;13.60;1.00
29003;DHT22;16102;57.138;-2.118;2022-10-31T10:43:50;13.60;1.00
29003;DHT22;16102;57.138;-2.118;2022-10-31T10:46:40;13.70;1.00
29003;DHT22;16102;57.138;-2.118;2022-10-31T10:49:50;13.70;1.00
29003;DHT22;16102;57.138;-2.118;2022-10-31T10:52:41;13.90;1.00
29003;DHT22;16102;57.138;-2.118;2022-10-31T11:00:30;14.20;99.90
29003;DHT22;16102;57.138;-2.118;2022-10-31T11:02:58;14.20;99.90
29003;DHT22;16102;57.138;-2.118;2022-10-31T11:05:46;14.10;99.90
29003;DHT22;16102;57.138;-2.118;2022-10-31T11:08:24;13.90;99.90
29003;DHT22;16102;57.138;-2.118;2022-10-31T11:11:07;14.30;99.90
29003;DHT22;16102;57.138;-2.118;2022-10-31T11:13:35;14.40;99.90
29003;DHT22;16102;57.138;-2.118;2022-10-31T11:16:06;14.70;99.90
29003;DHT22;16102;57.138;-2.118;2022-10-31T11:18:37;14.80;99.90
29003;DHT22;16102;57.138;-2.118;2022-10-31T11:21:06;15.00;99.90
29003;DHT22;16102;57.138;-2.118;2022-10-31T11:23:47;15.20;99.90
29003;DHT22;16102;57.138;-2.118;2022-10-31T11:26:20;15.10;99.90
29003;DHT22;16102;57.138;-2.118;2022-10-31T11:29:00;15.10;74.30
29003;DHT22;16102;57.138;-2.118;2022-10-31T11:31:29;14.80;46.60
29003;DHT22;16102;57.138;-2.118;2022-10-31T11:34:01;14.70;72.90
29003;DHT22;16102;57.138;-2.118;2022-10-31T11:36:36;14.80;99.90
29003;DHT22;16102;57.138;-2.118;2022-10-31T11:39:12;15.30;96.40
29003;DHT22;16102;57.138;-2.118;2022-10-31T11:41:40;15.90;27.00
29003;DHT22;16102;57.138;-2.118;2022-10-31T11:44:22;15.80;1.00
29003;DHT22;16102;57.138;-2.118;2022-10-31T11:47:01;16.30;1.00
29003;DHT22;16102;57.138;-2.118;2022-10-31T11:51:59;17.10;1.00
29003;DHT22;16102;57.138;-2.118;2022-10-31T11:59:55;16.30;1.00
29003;DHT22;16102;57.138;-2.118;2022-10-31T12:02:23;16.30;1.00
29003;DHT22;16102;57.138;-2.118;2022-10-31T12:05:20;16.00;1.00
29003;DHT22;16102;57.138;-2.118;2022-10-31T12:07:49;15.60;1.00
29003;DHT22;16102;57.138;-2.118;2022-10-31T12:10:21;15.30;1.00
29003;DHT22;16102;57.138;-2.118;2022-10-31T12:15:47;15.40;1.00
29003;DHT22;16102;57.138;-2.118;2022-10-31T12:24:41;16.60;1.00
29003;DHT22;16102;57.138;-2.118;2022-10-31T12:27:33;15.70;1.00
29003;DHT22;16102;57.138;-2.118;2022-10-31T12:30:17;16.60;1.00
29003;DHT22;16102;57.138;-2.118;2022-10-31T12:33:07;17.50;1.00
29003;DHT22;16102;57.138;-2.118;2022-10-31T12:46:40;16.00;1.00
29003;DHT22;16102;57.138;-2.118;2022-10-31T12:52:24;15.10;1.00
29003;DHT22;16102;57.138;-2.118;2022-10-31T12:54:56;15.10;1.00
29003;DHT22;16102;57.138;-2.118;2022-10-31T12:57:48;14.70;1.00
29003;DHT22;16102;57.138;-2.118;2022-10-31T13:00:18;14.80;8.50
29003;DHT22;16102;57.138;-2.118;2022-10-31T13:05:36;14.60;99.90
29003;DHT22;16102;57.138;-2.118;2022-10-31T13:10:45;14.90;75.70
29003;DHT22;16102;57.138;-2.118;2022-10-31T13:13:24;14.70;75.10
29003;DHT22;16102;57.138;-2.118;2022-10-31T13:16:01;14.70;79.30
29003;DHT22;16102;57.138;-2.118;2022-10-31T13:21:17;14.60;97.40
29003;DHT22;16102;57.138;-2.118;2022-10-31T13:23:49;14.50;99.90
29003;DHT22;16102;57.138;-2.118;2022-10-31T13:26:38;14.70;99.90
29003;DHT22;16102;57.138;-2.118;2022-10-31T13:32:04;14.90;99.90
29003;DHT22;16102;57.138;-2.118;2022-10-31T13:34:39;15.10;99.90
29003;DHT22;16102;57.138;-2.118;2022-10-31T13:37:39;16.10;27.00
29003;DHT22;16102;57.138;-2.118;2022-10-31T13:43:26;17.10;1.00
29003;DHT22;16102;57.138;-2.118;2022-10-31T13:45:55;16.60;1.00
29003;DHT22;16102;57.138;-2.118;2022-10-31T13:51:00;16.50;1.00
29003;DHT22;16102;57.138;-2.118;2022-10-31T13:53:39;17.20;1.00
29003;DHT22;16102;57.138;-2.118;2022-10-31T13:56:30;18.10;1.00
29003;DHT22;16102;57.138;-2.118;2022-10-31T14:01:50;17.10;1.00
29003;DHT22;16102;57.138;-2.118;2022-10-31T14:04:22;16.40;1.00
29003;DHT22;16102;57.138;-2.118;2022-10-31T14:07:06;15.90;1.00
29003;DHT22;16102;57.138;-2.118;2022-10-31T14:09:39;15.60;1.00
29003;DHT22;16102;57.138;-2.118;2022-10-31T14:12:13;15.40;1.00
29003;DHT22;16102;57.138;-2.118;2022-10-31T14:14:51;15.20;1.00
29003;DHT22;16102;57.138;-2.118;2022-10-31T14:17:22;14.90;1.00
29003;DHT22;16102;57.138;-2.118;2022-10-31T14:20:21;14.70;10.00
29003;DHT22;16102;57.138;-2.118;2022-10-31T14:22:48;14.50;76.50
29003;DHT22;16102;57.138;-2.118;2022-10-31T14:25:34;14.40;99.90
29003;DHT22;16102;57.138;-2.118;2022-10-31T14:28:05;14.40;99.90
29003;DHT22;16102;57.138;-2.118;2022-10-31T14:30:52;14.30;99.90
29003;DHT22;16102;57.138;-2.118;2022-10-31T14:33:20;14.40;99.90
29003;DHT22;16102;57.138;-2.118;2022-10-31T14:36:01;14.30;99.90
29003;DHT22;16102;57.138;-2.118;2022-10-31T14:44:46;14.10;99.90
29003;DHT22;16102;57.138;-2.118;2022-10-31T14:50:09;14.10;99.90
29003;DHT22;16102;57.138;-2.118;2022-10-31T14:52:40;14.10;99.90
29003;DHT22;16102;57.138;-2.118;2022-10-31T14:55:12;14.10;99.90
29003;DHT22;16102;57.138;-2.118;2022-10-31T14:57:50;14.00;1.00
29003;DHT22;16102;57.138;-2.118;2022-10-31T15:00:20;14.10;1.00
29003;DHT22;16102;57.138;-2.118;2022-10-31T15:03:15;14.10;99.90
29003;DHT22;16102;57.138;-2.118;2022-10-31T15:05:50;14.00;1.00
29003;DHT22;16102;57.138;-2.118;2022-10-31T15:08:40;14.00;1.00
29003;DHT22;16102;57.138;-2.118;2022-10-31T15:11:14;14.10;1.00
29003;DHT22;16102;57.138;-2.118;2022-10-31T15:13:49;14.10;1.00
29003;DHT22;16102;57.138;-2.118;2022-10-31T15:16:23;14.10;1.00
29003;DHT22;16102;57.138;-2.118;2022-10-31T15:19:06;14.20;1.00
29003;DHT22;16102;57.138;-2.118;2022-10-31T15:21:34;14.30;1.00
29003;DHT22;16102;57.138;-2.118;2022-10-31T15:24:02;14.20;1.00
29003;DHT22;16102;57.138;-2.118;2022-10-31T15:26:34;14.20;1.00
29003;DHT22;16102;57.138;-2.118;2022-10-31T15:29:10;14.00;1.00
29003;DHT22;16102;57.138;-2.118;2022-10-31T15:31:37;14.10;1.00
29003;DHT22;16102;57.138;-2.118;2022-10-31T15:34:17;14.00;1.00
29003;DHT22;16102;57.138;-2.118;2022-10-31T15:36:48;14.10;1.00
29003;DHT22;16102;57.138;-2.118;2022-10-31T15:39:17;14.00;1.00
29003;DHT22;16102;57.138;-2.118;2022-10-31T15:41:50;14.00;1.00
29003;DHT22;16102;57.138;-2.118;2022-10-31T15:44:21;14.00;1.00
29003;DHT22;16102;57.138;-2.118;2022-10-31T15:46:59;14.00;1.00
29003;DHT22;16102;57.138;-2.118;2022-10-31T15:54:55;13.80;1.00
29003;DHT22;16102;57.138;-2.118;2022-10-31T15:57:24;13.70;1.00
29003;DHT22;16102;57.138;-2.118;2022-10-31T15:59:53;13.60;1.00
29003;DHT22;16102;57.138;-2.118;2022-10-31T16:02:25;13.60;1.00
29003;DHT22;16102;57.138;-2.118;2022-10-31T16:04:56;13.60;20.00
29003;DHT22;16102;57.138;-2.118;2022-10-31T16:07:25;13.60;43.10
29003;DHT22;16102;57.138;-2.118;2022-10-31T16:10:02;13.70;59.50
29003;DHT22;16102;57.138;-2.118;2022-10-31T16:12:44;13.60;84.70
29003;DHT22;16102;57.138;-2.118;2022-10-31T16:15:15;13.60;99.90
29003;DHT22;16102;57.138;-2.118;2022-10-31T16:17:46;13.60;99.90
29003;DHT22;16102;57.138;-2.118;2022-10-31T16:20:21;13.60;99.90
29003;DHT22;16102;57.138;-2.118;2022-10-31T16:22:51;13.60;99.90
29003;DHT22;16102;57.138;-2.118;2022-10-31T16:25:34;13.60;99.90
29003;DHT22;16102;57.138;-2.118;2022-10-31T16:28:05;13.50;99.90
29003;DHT22;16102;57.138;-2.118;2022-10-31T16:30:42;13.40;99.90
29003;DHT22;16102;57.138;-2.118;2022-10-31T16:33:34;13.50;99.90
29003;DHT22;16102;57.138;-2.118;2022-10-31T16:39:03;13.40;99.90
29003;DHT22;16102;57.138;-2.118;2022-10-31T16:41:30;13.30;99.90
29003;DHT22;16102;57.138;-2.118;2022-10-31T16:44:00;13.30;99.90
29003;DHT22;16102;57.138;-2.118;2022-10-31T16:46:28;13.30;99.90
29003;DHT22;16102;57.138;-2.118;2022-10-31T16:48:55;13.30;1.00
29003;DHT22;16102;57.138;-2.118;2022-10-31T16:51:22;13.30;1.00
29003;DHT22;16102;57.138;-2.118;2022-10-31T16:53:51;13.30;1.00
29003;DHT22;16102;57.138;-2.118;2022-10-31T16:56:27;13.30;1.00
29003;DHT22;16102;57.138;-2.118;2022-10-31T16:58:55;13.20;1.00
29003;DHT22;16102;57.138;-2.118;2022-10-31T17:01:22;13.20;1.00
29003;DHT22;16102;57.138;-2.118;2022-10-31T17:03:50;13.20;1.00
29003;DHT22;16102;57.138;-2.118;2022-10-31T17:06:16;13.20;1.00
29003;DHT22;16102;57.138;-2.118;2022-10-31T17:08:43;13.20;1.00
29003;DHT22;16102;57.138;-2.118;2022-10-31T17:11:17;13.20;1.00
29003;DHT22;16102;57.138;-2.118;2022-10-31T17:13:45;13.20;1.00
29003;DHT22;16102;57.138;-2.118;2022-10-31T17:16:13;13.20;1.00
29003;DHT22;16102;57.138;-2.118;2022-10-31T17:18:42;13.20;1.00
29003;DHT22;16102;57.138;-2.118;2022-10-31T17:21:18;13.20;1.00
29003;DHT22;16102;57.138;-2.118;2022-10-31T17:23:45;13.20;1.00
29003;DHT22;16102;57.138;-2.118;2022-10-31T17:26:12;13.20;1.00
29003;DHT22;16102;57.138;-2.118;2022-10-31T17:28:40;13.20;1.00
29003;DHT22;16102;57.138;-2.118;2022-10-31T17:33:46;13.20;1.00
29003;DHT22;16102;57.138;-2.118;2022-10-31T17:36:13;13.20;1.00
29003;DHT22;16102;57.138;-2.118;2022-10-31T17:38:40;13.20;1.00
29003;DHT22;16102;57.138;-2.118;2022-10-31T17:41:07;13.20;1.00
29003;DHT22;16102;57.138;-2.118;2022-10-31T17:43:37;13.10;1.00
29003;DHT22;16102;57.138;-2.118;2022-10-31T17:46:05;13.10;1.00
29003;DHT22;16102;57.138;-2.118;2022-10-31T17:48:33;13.10;1.00
29003;DHT22;16102;57.138;-2.118;2022-10-31T17:51:02;13.10;13.80
29003;DHT22;16102;57.138;-2.118;2022-10-31T17:53:30;13.10;23.00
29003;DHT22;16102;57.138;-2.118;2022-10-31T17:56:05;13.10;37.20
29003;DHT22;16102;57.138;-2.118;2022-10-31T17:58:34;13.10;75.00
29003;DHT22;16102;57.138;-2.118;2022-10-31T18:01:10;13.00;99.90
29003;DHT22;16102;57.138;-2.118;2022-10-31T18:03:38;13.10;99.90
29003;DHT22;16102;57.138;-2.118;2022-10-31T18:06:05;13.10;99.90